createdAt,value
2019-02-28T00:00:47.604Z,21.40
2019-02-28T00:03:17.496Z,30.00
2019-02-28T00:05:45.946Z,27.37
2019-02-28T00:08:14.294Z,26.70
2019-02-28T00:10:43.624Z,24.27
2019-02-28T00:13:12.012Z,15.90
2019-02-28T00:15:40.406Z,21.83
2019-02-28T00:18:08.769Z,25.37
2019-02-28T00:20:37.350Z,25.30
2019-02-28T00:23:05.771Z,20.47
2019-02-28T00:25:37.712Z,23.70
2019-02-28T00:28:04.368Z,24.23
2019-02-28T00:30:32.711Z,20.07
2019-02-28T00:33:01.175Z,22.90
2019-02-28T00:35:29.470Z,22.83
2019-02-28T00:37:57.662Z,22.63
2019-02-28T00:40:26.242Z,23.90
2019-02-28T00:42:54.607Z,23.53
2019-02-28T00:45:23.027Z,16.50
2019-02-28T00:47:51.333Z,18.87
2019-02-28T00:50:19.752Z,16.70
2019-02-28T00:52:48.128Z,24.00
2019-02-28T00:55:17.120Z,19.87
2019-02-28T00:57:45.635Z,24.50
2019-02-28T01:00:15.514Z,24.27
2019-02-28T01:02:43.854Z,18.27
2019-02-28T01:05:12.313Z,20.40
2019-02-28T01:07:40.781Z,14.13
2019-02-28T01:10:10.575Z,15.17
2019-02-28T01:12:38.927Z,20.20
2019-02-28T01:15:10.053Z,16.20
2019-02-28T01:17:39.111Z,17.50
2019-02-28T01:20:07.826Z,18.30
2019-02-28T01:22:36.059Z,20.90
2019-02-28T01:25:07.083Z,21.30
2019-02-28T01:27:35.530Z,17.90
2019-02-28T01:30:06.606Z,17.63
2019-02-28T01:32:34.542Z,22.77
2019-02-28T01:35:05.798Z,17.23
2019-02-28T01:37:32.889Z,19.93
2019-02-28T01:40:04.318Z,19.93
2019-02-28T01:42:31.182Z,20.47
2019-02-28T01:44:59.394Z,17.70
2019-02-28T01:47:27.646Z,20.77
2019-02-28T01:49:57.790Z,20.27
2019-02-28T01:52:25.954Z,20.10
2019-02-28T01:54:54.269Z,16.40
2019-02-28T01:57:22.642Z,13.37
2019-02-28T01:59:52.872Z,17.90
2019-02-28T02:02:21.147Z,17.07
2019-02-28T02:04:49.482Z,16.63
2019-02-28T02:07:19.714Z,19.37
2019-02-28T02:09:48.182Z,17.33
2019-02-28T02:12:16.408Z,19.67
2019-02-28T02:14:45.694Z,18.80
2019-02-28T02:17:15.418Z,18.93
2019-02-28T02:19:43.734Z,18.23
2019-02-28T02:22:11.964Z,16.13
2019-02-28T02:24:40.313Z,17.83
2019-02-28T02:27:08.569Z,17.30
2019-02-28T02:29:37.120Z,14.80
2019-02-28T02:32:05.567Z,15.90
2019-02-28T02:34:33.794Z,16.77
2019-02-28T02:37:02.114Z,14.47
2019-02-28T02:39:30.506Z,18.27
2019-02-28T02:41:58.919Z,16.60
2019-02-28T02:44:30.670Z,19.93
2019-02-28T02:46:57.185Z,19.83
2019-02-28T02:49:25.568Z,14.23
2019-02-28T02:51:53.995Z,15.40
2019-02-28T02:54:22.323Z,17.30
2019-02-28T02:56:50.593Z,16.60
2019-02-28T02:59:19.034Z,15.07
2019-02-28T03:01:47.278Z,16.03
2019-02-28T03:04:21.393Z,17.33
2019-02-28T03:06:48.341Z,17.73
2019-02-28T03:09:17.894Z,18.10
2019-02-28T03:11:46.160Z,20.27
2019-02-28T03:14:16.355Z,19.03
2019-02-28T03:16:44.494Z,15.17
2019-02-28T03:19:12.950Z,14.23
2019-02-28T03:21:41.236Z,19.43
2019-02-28T03:24:14.573Z,20.30
2019-02-28T03:26:41.832Z,16.97
2019-02-28T03:29:09.589Z,21.27
2019-02-28T03:31:38.051Z,19.20
2019-02-28T03:34:13.225Z,20.83
2019-02-28T03:36:37.579Z,18.23
2019-02-28T03:39:06.212Z,21.47
2019-02-28T03:41:34.628Z,20.43
2019-02-28T03:44:03.082Z,17.93
2019-02-28T03:46:31.489Z,17.37
2019-02-28T03:48:59.842Z,18.87
2019-02-28T03:51:28.737Z,18.60
2019-02-28T03:53:58.183Z,21.13
2019-02-28T03:56:26.603Z,16.07
2019-02-28T03:58:54.867Z,20.60
2019-02-28T04:01:23.704Z,17.27
2019-02-28T04:03:52.099Z,17.93
2019-02-28T04:06:20.499Z,14.77
2019-02-28T04:08:48.945Z,18.63
2019-02-28T04:11:17.307Z,18.37
2019-02-28T04:13:45.729Z,14.20
2019-02-28T04:16:14.109Z,17.03
2019-02-28T04:18:46.134Z,20.37
2019-02-28T04:21:12.302Z,12.67
2019-02-28T04:23:40.629Z,16.77
2019-02-28T04:26:08.742Z,18.47
2019-02-28T04:28:37.134Z,18.03
2019-02-28T04:31:05.426Z,16.20
2019-02-28T04:33:37.700Z,17.07
2019-02-28T04:36:03.774Z,15.63
2019-02-28T04:38:32.201Z,17.80
2019-02-28T04:41:00.493Z,19.67
2019-02-28T04:43:28.754Z,15.73
2019-02-28T04:45:57.884Z,16.43
2019-02-28T04:48:26.828Z,16.10
2019-02-28T04:50:55.039Z,19.00
2019-02-28T04:53:23.366Z,18.97
2019-02-28T04:55:51.622Z,19.10
2019-02-28T04:58:22.369Z,17.23
2019-02-28T05:00:49.743Z,15.57
2019-02-28T05:03:18.117Z,18.40
2019-02-28T05:05:47.079Z,14.10
2019-02-28T05:08:16.015Z,14.83
2019-02-28T05:10:44.383Z,15.60
2019-02-28T05:13:14.289Z,16.53
2019-02-28T05:15:42.726Z,19.43
2019-02-28T05:18:11.242Z,16.70
2019-02-28T05:20:44.682Z,13.50
2019-02-28T05:23:09.486Z,18.03
2019-02-28T05:25:37.946Z,14.27
2019-02-28T05:28:07.461Z,14.77
2019-02-28T05:30:36.146Z,17.13
2019-02-28T05:33:06.652Z,16.83
2019-02-28T05:35:34.510Z,16.40
2019-02-28T05:38:02.837Z,17.90
2019-02-28T05:40:31.148Z,17.40
2019-02-28T05:42:59.591Z,14.73
2019-02-28T05:45:28.021Z,17.80
2019-02-28T05:47:56.274Z,10.83
2019-02-28T05:50:24.705Z,17.07
2019-02-28T05:52:53.132Z,16.60
2019-02-28T05:55:24.849Z,14.20
2019-02-28T05:57:51.701Z,13.70
2019-02-28T06:03:36.253Z,13.27
2019-02-28T06:09:20.863Z,14.80
2019-02-28T06:15:07.587Z,14.83
2019-02-28T06:17:35.817Z,13.77
2019-02-28T06:20:05.767Z,10.97
2019-02-28T06:25:50.181Z,14.57
2019-02-28T06:31:22.921Z,15.10
2019-02-28T06:37:06.766Z,12.90
2019-02-28T06:42:52.069Z,14.00
2019-02-28T06:48:37.504Z,16.60
2019-02-28T06:51:06.062Z,13.60
2019-02-28T06:53:36.338Z,15.83
2019-02-28T06:56:04.998Z,15.37
2019-02-28T06:58:33.898Z,13.40
2019-02-28T07:01:02.338Z,12.70
2019-02-28T07:03:30.627Z,14.83
2019-02-28T07:06:01.131Z,14.30
2019-02-28T07:08:29.082Z,14.20
2019-02-28T07:10:57.502Z,13.70
2019-02-28T07:13:26.864Z,13.83
2019-02-28T07:15:55.487Z,14.63
2019-02-28T07:18:25.320Z,11.23
2019-02-28T07:20:53.616Z,9.77
2019-02-28T07:23:22.308Z,14.23
2019-02-28T07:25:52.402Z,12.17
2019-02-28T07:28:20.777Z,10.67
2019-02-28T07:30:50.346Z,14.80
2019-02-28T07:33:19.660Z,11.33
2019-02-28T07:35:47.906Z,16.17
2019-02-28T07:38:16.234Z,13.07
2019-02-28T07:40:45.702Z,14.17
2019-02-28T07:43:14.187Z,14.20
2019-02-28T07:45:42.494Z,9.67
2019-02-28T07:48:10.767Z,9.73
2019-02-28T07:50:39.142Z,14.27
2019-02-28T07:53:08.795Z,15.17
2019-02-28T07:55:38.083Z,17.37
2019-02-28T07:58:06.742Z,14.83
2019-02-28T08:00:35.045Z,13.60
2019-02-28T08:03:03.283Z,14.63
2019-02-28T08:05:31.559Z,18.87
2019-02-28T08:07:59.848Z,15.37
2019-02-28T08:10:28.849Z,13.10
2019-02-28T08:12:57.181Z,15.87
2019-02-28T08:15:26.142Z,13.30
2019-02-28T08:17:54.486Z,15.70
2019-02-28T08:20:23.385Z,14.37
2019-02-28T08:22:51.829Z,12.03
2019-02-28T08:25:20.163Z,18.60
2019-02-28T08:27:48.688Z,18.03
2019-02-28T08:30:19.433Z,16.37
2019-02-28T08:32:48.143Z,14.87
2019-02-28T08:35:16.413Z,15.80
2019-02-28T08:37:44.814Z,14.93
2019-02-28T08:40:15.761Z,17.10
2019-02-28T08:42:44.751Z,16.07
2019-02-28T08:45:14.077Z,14.03
2019-02-28T08:47:42.553Z,17.33
2019-02-28T08:50:12.047Z,16.70
2019-02-28T08:52:42.262Z,22.13
2019-02-28T08:55:12.201Z,14.47
2019-02-28T08:57:40.561Z,20.73
2019-02-28T09:00:10.543Z,14.97
2019-02-28T09:02:41.154Z,12.40
2019-02-28T09:05:09.701Z,15.90
2019-02-28T09:07:38.626Z,15.37
2019-02-28T09:10:11.831Z,18.43
2019-02-28T09:12:38.603Z,15.97
2019-02-28T09:15:08.424Z,15.40
2019-02-28T09:17:37.872Z,20.93
2019-02-28T09:20:10.556Z,17.13
2019-02-28T09:22:37.980Z,15.43
2019-02-28T09:25:07.804Z,12.27
2019-02-28T09:27:38.861Z,18.67
2019-02-28T09:30:07.683Z,14.33
2019-02-28T09:32:36.037Z,14.83
2019-02-28T09:35:12.285Z,17.53
2019-02-28T09:37:35.947Z,17.13
2019-02-28T09:40:05.994Z,16.43
2019-02-28T09:42:34.419Z,14.90
2019-02-28T09:45:06.730Z,17.57
2019-02-28T09:47:32.783Z,22.23
2019-02-28T09:50:00.961Z,19.07
2019-02-28T09:52:30.602Z,14.07
2019-02-28T09:54:59.216Z,21.53
2019-02-28T09:57:30.156Z,13.03
2019-02-28T09:59:58.241Z,16.77
2019-02-28T10:02:26.474Z,18.23
2019-02-28T10:04:54.760Z,17.83
2019-02-28T10:07:23.362Z,18.87
2019-02-28T10:09:52.994Z,16.60
2019-02-28T10:12:21.566Z,14.87
2019-02-28T10:14:51.954Z,17.57
2019-02-28T10:17:19.966Z,17.83
2019-02-28T10:19:49.149Z,22.20
2019-02-28T10:22:18.427Z,16.93
2019-02-28T10:24:46.706Z,17.47
2019-02-28T10:27:14.993Z,18.07
2019-02-28T10:29:43.456Z,13.87
2019-02-28T10:32:11.722Z,13.93
2019-02-28T10:34:40.013Z,18.83
2019-02-28T10:37:08.593Z,17.27
2019-02-28T10:39:37.025Z,18.77
2019-02-28T10:42:06.108Z,15.27
2019-02-28T10:44:34.549Z,18.93
2019-02-28T10:47:04.389Z,14.43
2019-02-28T10:49:32.800Z,20.70
2019-02-28T10:52:01.271Z,20.43
2019-02-28T10:54:30.681Z,14.47
2019-02-28T10:56:59.466Z,17.13
2019-02-28T10:59:27.798Z,26.73
2019-02-28T11:01:55.968Z,14.37
2019-02-28T11:04:24.901Z,14.67
2019-02-28T11:06:53.336Z,15.80
2019-02-28T11:09:25.218Z,20.67
2019-02-28T11:11:51.599Z,18.30
2019-02-28T11:14:19.926Z,18.13
2019-02-28T11:16:48.286Z,17.90
2019-02-28T11:19:18.648Z,13.13
2019-02-28T11:21:46.654Z,20.20
2019-02-28T11:24:14.982Z,18.67
2019-02-28T11:26:44.716Z,22.83
2019-02-28T11:29:13.645Z,18.33
2019-02-28T11:31:42.125Z,20.10
2019-02-28T11:34:11.580Z,19.80
2019-02-28T11:36:40.680Z,20.43
2019-02-28T11:39:10.370Z,19.30
2019-02-28T11:41:38.786Z,16.87
2019-02-28T11:44:09.298Z,18.17
2019-02-28T11:46:37.393Z,13.60
2019-02-28T11:49:05.801Z,19.70
2019-02-28T11:51:34.328Z,17.10
2019-02-28T11:54:02.765Z,23.17
2019-02-28T11:56:31.381Z,16.93
2019-02-28T11:58:59.884Z,29.03
2019-02-28T12:01:28.421Z,18.30
2019-02-28T12:03:56.933Z,25.17
2019-02-28T12:06:25.539Z,21.37
2019-02-28T12:08:54.986Z,22.03
2019-02-28T12:11:25.117Z,17.57
2019-02-28T12:13:55.222Z,13.10
2019-02-28T12:16:23.545Z,16.10
2019-02-28T12:18:51.734Z,12.27
2019-02-28T12:21:19.989Z,14.63
2019-02-28T12:23:48.414Z,14.40
2019-02-28T12:26:17.692Z,19.33
2019-02-28T12:28:46.650Z,17.33
2019-02-28T12:31:15.044Z,12.30
2019-02-28T12:33:43.464Z,25.27
2019-02-28T12:36:14.475Z,12.57
2019-02-28T12:38:41.718Z,13.07
2019-02-28T12:41:11.434Z,23.17
2019-02-28T12:43:40.579Z,17.97
2019-02-28T12:46:09.884Z,20.53
2019-02-28T12:48:38.154Z,18.90
2019-02-28T12:54:11.951Z,17.03
2019-02-28T12:56:40.379Z,19.87
2019-02-28T12:59:09.920Z,17.53
2019-02-28T13:01:38.724Z,17.33
2019-02-28T13:07:22.902Z,13.27
2019-02-28T13:09:51.653Z,12.23
2019-02-28T13:12:21.071Z,14.40
2019-02-28T13:14:49.406Z,18.13
2019-02-28T13:17:17.842Z,14.77
2019-02-28T13:19:46.050Z,19.67
2019-02-28T13:22:14.279Z,16.30
2019-02-28T13:24:45.863Z,19.50
2019-02-28T13:27:13.020Z,12.63
2019-02-28T13:29:41.248Z,14.60
2019-02-28T13:32:09.603Z,14.47
2019-02-28T13:34:38.131Z,15.13
2019-02-28T13:37:06.397Z,12.90
2019-02-28T13:39:34.650Z,13.97
2019-02-28T13:42:04.145Z,20.10
2019-02-28T13:44:36.446Z,18.07
2019-02-28T13:47:09.056Z,15.27
2019-02-28T13:49:32.947Z,14.30
2019-02-28T13:52:01.501Z,20.60
2019-02-28T13:54:29.919Z,17.00
2019-02-28T13:56:58.197Z,21.47
2019-02-28T13:59:28.493Z,12.23
2019-02-28T14:01:56.618Z,14.27
2019-02-28T14:04:27.094Z,21.50
2019-02-28T14:06:55.877Z,16.60
2019-02-28T14:09:25.277Z,21.37
2019-02-28T14:11:53.961Z,18.37
2019-02-28T14:14:23.163Z,19.13
2019-02-28T14:16:52.932Z,24.33
2019-02-28T14:19:21.448Z,17.37
2019-02-28T14:21:49.887Z,17.83
2019-02-28T14:24:18.952Z,21.67
2019-02-28T14:26:49.569Z,16.47
2019-02-28T14:29:17.370Z,21.20
2019-02-28T14:31:45.748Z,17.30
2019-02-28T14:34:14.034Z,20.10
2019-02-28T14:36:45.149Z,16.33
2019-02-28T14:39:12.532Z,15.57
2019-02-28T14:41:40.982Z,14.93
2019-02-28T14:44:09.341Z,21.93
2019-02-28T14:46:37.796Z,15.50
2019-02-28T14:49:06.199Z,19.07
2019-02-28T14:51:35.446Z,24.63
2019-02-28T14:54:03.758Z,17.73
2019-02-28T14:56:32.788Z,13.80
2019-02-28T14:59:01.144Z,16.20
2019-02-28T15:01:29.467Z,23.83
2019-02-28T15:03:57.868Z,15.37
2019-02-28T15:06:29.203Z,17.93
2019-02-28T15:08:56.181Z,21.93
2019-02-28T15:11:24.474Z,20.50
2019-02-28T15:13:53.210Z,16.93
2019-02-28T15:16:21.709Z,17.33
2019-02-28T15:18:51.218Z,13.43
2019-02-28T15:21:19.679Z,17.50
2019-02-28T15:23:48.066Z,13.97
2019-02-28T15:26:16.522Z,19.00
2019-02-28T15:28:45.512Z,16.90
2019-02-28T15:31:14.913Z,15.57
2019-02-28T15:33:43.292Z,18.07
2019-02-28T15:36:11.792Z,12.33
2019-02-28T15:38:41.942Z,15.10
2019-02-28T15:41:10.237Z,18.80
2019-02-28T15:43:38.655Z,20.40
2019-02-28T15:46:08.637Z,21.73
2019-02-28T15:48:36.917Z,29.90
2019-02-28T15:51:05.342Z,20.37
2019-02-28T15:53:33.647Z,18.20
2019-02-28T15:56:02.104Z,15.67
2019-02-28T15:58:30.474Z,15.70
2019-02-28T16:00:58.822Z,17.33
2019-02-28T16:03:27.227Z,12.50
2019-02-28T16:05:56.287Z,21.60
2019-02-28T16:08:24.652Z,21.77
2019-02-28T16:10:53.745Z,20.47
2019-02-28T16:13:22.655Z,22.37
2019-02-28T16:15:52.237Z,16.97
2019-02-28T16:18:20.588Z,26.57
2019-02-28T16:20:48.808Z,22.20
2019-02-28T16:23:17.248Z,21.93
2019-02-28T16:25:46.910Z,16.10
2019-02-28T16:28:15.515Z,16.23
2019-02-28T16:30:44.006Z,19.23
2019-02-28T16:33:12.374Z,20.90
2019-02-28T16:35:40.710Z,23.33
2019-02-28T16:38:10.114Z,18.83
2019-02-28T16:40:38.868Z,16.37
2019-02-28T16:43:28.169Z,19.60
2019-02-28T16:46:30.959Z,16.73
2019-02-28T16:48:59.039Z,19.47
2019-02-28T16:51:29.411Z,20.73
2019-02-28T16:53:57.323Z,17.53
2019-02-28T16:56:25.651Z,15.37
2019-02-28T16:58:57.270Z,13.27
2019-02-28T17:01:23.706Z,20.73
2019-02-28T17:03:51.975Z,20.43
2019-02-28T17:06:20.388Z,21.40
2019-02-28T17:08:51.474Z,18.13
2019-02-28T17:11:20.386Z,18.40
2019-02-28T17:13:50.319Z,20.87
2019-02-28T17:16:20.364Z,26.30
2019-02-28T17:18:48.729Z,19.77
2019-02-28T17:21:18.115Z,18.00
2019-02-28T17:23:46.846Z,20.67
2019-02-28T17:26:15.213Z,12.77
2019-02-28T17:28:46.560Z,20.27
2019-02-28T17:31:16.887Z,15.93
2019-02-28T17:33:46.797Z,9.63
2019-02-28T17:36:15.750Z,12.00
2019-02-28T17:38:44.273Z,18.77
2019-02-28T17:41:12.594Z,15.17
2019-02-28T17:43:41.254Z,21.27
2019-02-28T17:46:11.314Z,17.60
2019-02-28T17:48:41.289Z,18.00
2019-02-28T17:51:11.066Z,17.37
2019-02-28T17:53:42.038Z,21.60
2019-02-28T17:56:12.470Z,21.10
2019-02-28T17:58:42.483Z,24.17
2019-02-28T18:01:10.504Z,19.73
2019-02-28T18:03:40.508Z,21.23
2019-02-28T18:06:12.050Z,23.33
2019-02-28T18:08:41.874Z,16.40
2019-02-28T18:11:11.676Z,19.33
2019-02-28T18:13:41.598Z,23.40
2019-02-28T18:16:11.386Z,25.50
2019-02-28T18:18:41.844Z,21.23
2019-02-28T18:21:12.534Z,24.70
2019-02-28T18:23:42.429Z,18.80
2019-02-28T18:26:12.274Z,19.77
2019-02-28T18:28:42.348Z,25.13
2019-02-28T18:31:11.410Z,22.70
2019-02-28T18:33:41.844Z,19.73
2019-02-28T18:36:12.436Z,21.20
2019-02-28T18:38:40.647Z,17.87
2019-02-28T18:41:10.000Z,24.27
2019-02-28T18:43:40.369Z,15.83
2019-02-28T18:46:08.415Z,17.80
2019-02-28T18:48:36.734Z,26.10
2019-02-28T18:51:05.290Z,14.30
2019-02-28T18:53:33.709Z,27.80
2019-02-28T18:56:02.129Z,21.83
2019-02-28T18:58:30.522Z,25.23
2019-02-28T19:00:58.959Z,25.73
2019-02-28T19:03:27.423Z,19.90
2019-02-28T19:05:55.792Z,15.57
2019-02-28T19:08:24.266Z,22.83
2019-02-28T19:10:52.656Z,15.63
2019-02-28T19:13:21.147Z,23.23
2019-02-28T19:15:49.540Z,26.10
2019-02-28T19:18:18.004Z,25.67
2019-02-28T19:20:46.563Z,16.57
2019-02-28T19:23:15.926Z,21.37
2019-02-28T19:25:44.414Z,24.43
2019-02-28T19:28:12.853Z,25.20
2019-02-28T19:30:41.287Z,14.60
2019-02-28T19:33:09.683Z,22.70
2019-02-28T19:35:40.956Z,18.37
2019-02-28T19:38:09.255Z,13.10
2019-02-28T19:40:37.574Z,19.10
2019-02-28T19:43:05.920Z,23.90
2019-02-28T19:45:35.892Z,15.90
2019-02-28T19:48:04.362Z,19.43
2019-02-28T19:50:32.742Z,12.23
2019-02-28T19:53:00.947Z,18.80
2019-02-28T19:55:29.389Z,18.47
2019-02-28T19:57:58.437Z,18.37
2019-02-28T20:00:27.011Z,15.67
2019-02-28T20:02:55.634Z,18.87
2019-02-28T20:05:25.076Z,15.27
2019-02-28T20:07:53.464Z,18.73
2019-02-28T20:10:21.840Z,18.30
2019-02-28T20:12:50.312Z,17.93
2019-02-28T20:15:21.770Z,16.43
2019-02-28T20:17:50.113Z,11.93
2019-02-28T20:20:20.398Z,8.90
2019-02-28T20:22:48.830Z,8.47
2019-02-28T20:25:17.324Z,6.47
2019-02-28T20:27:45.651Z,6.43
2019-02-28T20:30:15.546Z,5.10
2019-02-28T20:32:44.063Z,5.93
2019-02-28T20:35:13.902Z,5.40
2019-02-28T20:37:42.242Z,6.00
2019-02-28T20:40:13.956Z,5.33
2019-02-28T20:42:43.432Z,5.20
2019-02-28T20:45:12.044Z,5.37
2019-02-28T20:47:40.466Z,5.10
2019-02-28T20:50:11.206Z,5.80
2019-02-28T20:52:39.593Z,4.63
2019-02-28T20:55:08.014Z,5.70
2019-02-28T21:00:13.575Z,9.30
2019-02-28T21:02:42.351Z,9.17
2019-02-28T21:05:10.954Z,11.27
2019-02-28T21:07:39.312Z,12.73
2019-02-28T21:10:08.530Z,21.07
2019-02-28T21:12:37.106Z,22.17
2019-02-28T21:15:06.830Z,28.20
2019-02-28T21:17:35.177Z,29.37
2019-02-28T21:20:05.200Z,32.87
2019-02-28T21:22:34.003Z,32.23
2019-02-28T21:25:02.639Z,29.53
2019-02-28T21:27:31.082Z,27.93
2019-02-28T21:29:59.552Z,24.37
2019-02-28T21:32:27.788Z,29.43
2019-02-28T21:34:56.015Z,23.27
2019-02-28T21:37:24.807Z,27.57
2019-02-28T21:39:53.085Z,26.33
2019-02-28T21:42:23.407Z,29.47
2019-02-28T21:44:51.790Z,26.67
2019-02-28T21:47:20.311Z,25.33
2019-02-28T21:49:48.853Z,23.03
2019-02-28T21:52:17.978Z,18.37
2019-02-28T21:54:47.757Z,25.43
2019-02-28T21:57:17.942Z,23.20
2019-02-28T21:59:46.389Z,19.50
2019-02-28T22:02:14.937Z,24.63
2019-02-28T22:04:43.243Z,26.70
2019-02-28T22:07:11.708Z,25.87
2019-02-28T22:09:40.014Z,20.57
2019-02-28T22:12:08.590Z,25.43
2019-02-28T22:14:36.890Z,21.03
2019-02-28T22:17:05.234Z,23.43
2019-02-28T22:19:33.764Z,17.70
2019-02-28T22:22:02.381Z,21.67
2019-02-28T22:24:30.793Z,20.67
2019-02-28T22:26:59.020Z,20.73
2019-02-28T22:29:27.416Z,21.33
2019-02-28T22:31:57.327Z,21.60
2019-02-28T22:34:27.111Z,24.87
2019-02-28T22:36:55.481Z,17.70
2019-02-28T22:39:23.908Z,26.97
2019-02-28T22:41:52.191Z,21.33
2019-02-28T22:44:20.569Z,24.03
2019-02-28T22:46:49.063Z,22.73
2019-02-28T22:49:17.321Z,24.63
2019-02-28T22:51:45.703Z,21.70
2019-02-28T22:54:13.995Z,22.30
2019-02-28T22:56:42.380Z,18.67
2019-02-28T22:59:10.612Z,20.50
2019-02-28T23:01:39.544Z,23.20
2019-02-28T23:04:07.781Z,22.33
2019-02-28T23:06:36.073Z,32.83
2019-02-28T23:09:05.286Z,24.90
2019-02-28T23:11:35.254Z,21.13
2019-02-28T23:14:03.834Z,25.93
2019-02-28T23:16:32.112Z,26.87
2019-02-28T23:19:00.462Z,26.23
2019-02-28T23:21:28.716Z,20.00
2019-02-28T23:23:57.006Z,32.37
2019-02-28T23:26:25.564Z,31.10
2019-02-28T23:28:55.420Z,16.93
2019-02-28T23:31:25.304Z,18.60
2019-02-28T23:34:01.270Z,26.80
2019-02-28T23:36:25.259Z,39.43
2019-02-28T23:38:53.608Z,28.80
2019-02-28T23:41:21.879Z,28.80
2019-02-28T23:43:50.267Z,29.07
2019-02-28T23:46:18.507Z,26.33
2019-02-28T23:48:46.823Z,26.83
2019-02-28T23:51:15.135Z,25.90
2019-02-28T23:53:43.345Z,34.17
2019-02-28T23:56:11.730Z,21.13
2019-02-28T23:58:39.947Z,23.37
